トロンハイム の空港の天気 - METARとTAF

Trondheim / Vaernes ( ENVA / TRD ) - ノルウェー ヌール・トロンデラーグ県、Stjordal
飛行場実況気象(Metar)
観測時間01/19 12:20 CET (01/19 11:20 UTC)
風向・風速北北西 3m/s
視程10km以上
天気現象周辺でしゅう雨
少しの雲 雲底高度 760m
全天の8割程度の雲 雲底高度 1190m
気温-3℃
湿度86%
気圧1008hPa
METARENVA 191120Z 34006KT 270V010 9999 VCSH FEW025CB BKN039 M03/M05 Q1008 TEMPO 30018KT 1000 SHSNGS VV005 RMK WIND 670FT 30016KT
過去の天気等 Google飛行場航空写真 Wunderground天気予報

過去48時間のMETAR

飛行場予報(TAF)
発表時間: -
19日11時 CET ~ 20日7時 CET に一時的に
視程500m
天気現象しゅう雪あられ
全天を覆う雲 鉛直視程 120m
19日11時 CET ~ 19日14時 CET に一時的に
風向・風速西北西 9m/s 瞬間風速 14m/s
19日20時 CET ~ 19日22時 CET に徐々に
風向・風速南西 3m/s
TAF AMD ENVA 1910/2006 32012KT 9999 -SHSN SCT012CB BKN020
TEMPO 1910/2006 0500 SHSNGS VV004
TEMPO 1910/1913 30018G28KT
BECMG 1919/1921 23005KT